Breedsville, MI (49027)

4:43 PM EST on February 13, 2016 (GMT -0500)
Columbia Twp | | Change Station
CLOSE
Current Station
Personal Weather Station
Location: Grand Junction, MI
Elevation: 665 ft
Nearby Weather Stations

Elev 665 ft 42.41 °N, 86.05 °W | Updated 2 seconds ago

Overcast
Overcast
17.3 °F
Feels Like 17 °F
N
0.4
Wind Variable Wind from West
Gusts 2.7 mph

Today
High -- | Low -- °F
--% Chance of Precip.
Yesterday
High -- | Low -- °F
Precip. -- in
Pressure 30.50 in
Visibility 7.0 miles
Clouds Scattered Clouds 2400 ft
Mostly Cloudy 2900 ft
Overcast 3800 ft
Windchill 17 °F
Dew Point 9 °F
Humidity 69%
Rainfall 0.00 in
Snow Depth Not available.
7:44 AM 6:13 PM
Waxing Crescent, 34% visible
METAR KLWA 132135Z AUTO 33010KT 290V350 7SM SCT024 BKN029 OVC038 M09/M15 A3050 RMK AO2 T10951147
Pressure 30.50 in
Visibility 7.0 miles
Clouds Scattered Clouds 2400 ft
Mostly Cloudy 2900 ft
Overcast 3800 ft
Windchill 17 °F
Dew Point 9 °F
Humidity 69%
Rainfall 0.00 in
Snow Depth Not available.
7:44 AM 6:13 PM
Waxing Crescent, 34% visible
METAR KLWA 132135Z AUTO 33010KT 290V350 7SM SCT024 BKN029 OVC038 M09/M15 A3050 RMK AO2 T10951147

10-Day Weather Forecast

Almanac

Astronomy

Feb. 13, 2016 Rise Set
Actual Time
Civil Twilight
Nautical Twilight
Astronomical Twilight
Moon
Length of Visible Light
Length of Day
Tomorrow will be .
, % of the Moon is Illuminated

Today's Extremes

State Highs State Lows

Community

WunderPhotos

Upload Photos

1,892,682 photos uploaded!

WunderBlog® & News

Nearby

Air Quality

  Air Quality AQ Index Pollutant
Not available.

Snow Depth

Station Depth Elevation

Earthquake Activity

City Distance Mag. Time & Date
Minimum magnitude displayed is 2.5.

Coastal Water Temperatures

Place Temperature

Stations

Nearby Weather Stations

Station Location Temp. Windchill Dew Point Humidity Wind Precip. Elev Updated Type
                   

Watches & Warnings

There are currently no watches in effect.